Time;durP1;ratioP1;P1;durP2;ratioP2;P2;SDS_P1;SDS_P2;PMS_P1;PMS_P2;Temp;Humidity;BMP_temperature;BMP_pressure;BME280_temperature;BME280_humidity;BME280_pressure;Samples;Min_cycle;Max_cycle;Signal;HPM_P1;HPM_P2
2022/10/06 00:01:23;;;;;;;10.10;3.15;;;;;;;13.48;49.89;100965.19;3144322;28;20052;-63
2022/10/06 00:02:56;;;;;;;7.15;3.28;;;;;;;13.38;50.26;100940.28;3144770;28;20093;-63
2022/10/06 00:04:28;;;;;;;8.27;2.90;;;;;;;13.36;50.29;100961.25;3144529;28;20054;-63
2022/10/06 00:06:00;;;;;;;14.07;3.30;;;;;;;13.29;50.59;100957.19;3144403;28;20314;-63
2022/10/06 00:07:32;;;;;;;7.40;3.10;;;;;;;13.23;50.56;100953.94;3144926;28;20114;-63
2022/10/06 00:09:04;;;;;;;6.22;2.85;;;;;;;13.20;51.07;100954.91;3144732;28;20052;-63
2022/10/06 00:10:36;;;;;;;7.28;3.50;;;;;;;13.16;50.79;100950.66;3144605;28;20048;-63
2022/10/06 00:12:08;;;;;;;8.25;3.75;;;;;;;13.13;50.77;100949.06;3144097;28;20378;-63
2022/10/06 00:13:41;;;;;;;10.88;2.83;;;;;;;13.10;50.91;100953.50;3144532;28;20048;-63
2022/10/06 00:15:15;;;;;;;7.85;2.75;;;;;;;13.09;50.94;100951.81;3143312;28;20060;-63
2022/10/06 00:16:46;;;;;;;6.43;3.20;;;;;;;13.07;50.92;100951.00;3135377;28;20044;-63
2022/10/06 00:18:20;;;;;;;15.00;3.15;;;;;;;13.06;51.29;100944.09;3144391;28;20432;-63
2022/10/06 00:19:51;;;;;;;9.73;3.10;;;;;;;13.04;51.33;100946.75;3144793;28;20414;-63
2022/10/06 00:21:23;;;;;;;9.65;2.63;;;;;;;13.01;51.46;100939.00;3143104;28;20113;-63
2022/10/06 00:22:56;;;;;;;7.70;3.25;;;;;;;12.97;51.24;100950.50;3143129;28;20052;-63
2022/10/06 00:24:28;;;;;;;7.68;3.05;;;;;;;12.93;51.40;100941.09;3144313;28;20115;-63
2022/10/06 00:26:00;;;;;;;8.30;2.85;;;;;;;12.92;51.68;100945.44;3144395;28;20118;-63
2022/10/06 00:27:35;;;;;;;9.82;3.00;;;;;;;12.88;51.70;100936.00;3144661;28;20051;-63
2022/10/06 00:29:07;;;;;;;5.53;3.17;;;;;;;12.86;51.92;100945.66;3144466;28;20118;-63
2022/10/06 00:30:38;;;;;;;6.07;2.55;;;;;;;12.82;51.70;100944.09;3144306;28;20441;-63
2022/10/06 00:32:10;;;;;;;4.60;2.80;;;;;;;12.77;52.11;100935.53;3144754;28;20049;-63
2022/10/06 00:33:43;;;;;;;6.60;2.88;;;;;;;12.75;51.95;100940.00;3144691;28;20102;-62
2022/10/06 00:35:15;;;;;;;10.80;3.03;;;;;;;12.72;51.97;100933.13;3143650;28;20524;-63
2022/10/06 00:36:47;;;;;;;8.35;2.97;;;;;;;12.67;52.25;100929.81;3146667;28;20048;-63
2022/10/06 00:38:17;;;;;;;10.23;2.90;;;;;;;12.71;51.92;100936.63;3146494;28;20098;-63
2022/10/06 00:39:49;;;;;;;5.03;2.88;;;;;;;12.73;52.00;100936.56;3147044;28;20125;-62
2022/10/06 00:41:21;;;;;;;9.98;2.75;;;;;;;12.73;52.15;100936.56;3147065;28;20049;-63
2022/10/06 00:42:54;;;;;;;5.68;2.83;;;;;;;12.74;51.97;100940.88;3146367;28;20079;-63
2022/10/06 00:44:26;;;;;;;4.95;2.83;;;;;;;12.74;52.14;100943.50;3146901;28;20548;-63
2022/10/06 00:45:57;;;;;;;7.70;2.78;;;;;;;12.73;52.29;100941.81;3146945;28;20053;-63
2022/10/06 00:47:33;;;;;;;5.53;2.78;;;;;;;12.71;52.13;100938.38;3146960;28;20473;-62
2022/10/06 00:49:13;;;;;;;4.38;2.72;;;;;;;12.69;52.15;100942.84;3146630;28;20048;-62
2022/10/06 00:50:45;;;;;;;20.67;3.88;;;;;;;12.63;52.41;100943.03;3146792;28;20059;-62
2022/10/06 00:52:21;;;;;;;7.25;3.00;;;;;;;12.57;52.85;100938.88;3146718;28;20052;-62
2022/10/06 00:53:52;;;;;;;7.53;4.38;;;;;;;12.55;52.71;100940.69;3146820;28;20084;-63
2022/10/06 00:55:24;;;;;;;7.55;2.83;;;;;;;12.48;52.91;100934.84;3146798;28;20049;-63
2022/10/06 00:56:57;;;;;;;7.00;3.05;;;;;;;12.47;52.90;100938.34;3145930;28;20248;-63
2022/10/06 00:58:30;;;;;;;6.25;2.63;;;;;;;12.41;53.06;100929.88;3135074;28;20708;-62
2022/10/06 01:00:02;;;;;;;4.28;2.40;;;;;;;12.37;53.19;100938.72;3146730;28;20063;-63
2022/10/06 01:01:34;;;;;;;8.90;2.92;;;;;;;12.35;53.09;100940.53;3146761;28;20508;-62
2022/10/06 01:03:09;;;;;;;6.57;2.90;;;;;;;12.30;53.50;100935.44;3144731;28;20052;-63
2022/10/06 01:04:48;;;;;;;3.92;2.35;;;;;;;12.25;53.75;100932.16;3146780;28;20397;-62
2022/10/06 01:06:20;;;;;;;5.43;2.47;;;;;;;12.18;53.45;100936.72;3146577;28;20101;-63
2022/10/06 01:07:52;;;;;;;4.65;2.45;;;;;;;12.14;53.91;100936.88;3146406;28;20086;-63
2022/10/06 01:09:24;;;;;;;4.50;2.83;;;;;;;12.09;53.58;100933.56;3146731;28;20080;-62
2022/10/06 01:10:56;;;;;;;6.68;2.50;;;;;;;12.09;53.79;100941.41;3146400;28;20554;-63
2022/10/06 01:12:33;;;;;;;11.63;2.85;;;;;;;12.07;53.76;100936.25;3145481;28;20170;-62
2022/10/06 01:14:05;;;;;;;7.18;2.80;;;;;;;12.07;53.79;100941.47;3136643;28;20052;-63
2022/10/06 01:15:41;;;;;;;5.88;2.67;;;;;;;12.05;53.94;100935.44;3132707;28;20540;-63
2022/10/06 01:17:20;;;;;;;6.28;3.35;;;;;;;12.05;53.88;100940.66;3131600;28;20055;-63
2022/10/06 01:18:55;;;;;;;7.35;2.47;;;;;;;12.03;54.06;100932.84;3136449;28;20537;-63
2022/10/06 01:20:28;;;;;;;10.52;3.15;;;;;;;12.01;54.19;100929.47;3136735;28;20048;-63
2022/10/06 01:22:03;;;;;;;;;;;;;;;11.98;54.02;100936.53;3137585;28;20049;-63
2022/10/06 01:23:37;;;;;;;6.50;2.80;;;;;;;11.96;53.81;100936.59;3136542;28;19924;-62
2022/10/06 01:25:12;;;;;;;7.07;2.92;;;;;;;11.95;53.93;100934.00;3137155;28;20049;-63
2022/10/06 01:26:49;;;;;;;10.73;2.90;;;;;;;11.95;53.87;100926.19;3137550;28;20091;-63
2022/10/06 01:28:21;;;;;;;5.88;2.75;;;;;;;11.93;54.25;100931.47;3137353;28;20052;-63
2022/10/06 01:29:54;;;;;;;4.75;2.90;;;;;;;11.86;54.24;100918.66;3136610;28;20527;-63
2022/10/06 01:31:27;;;;;;;5.93;2.78;;;;;;;11.91;54.19;100933.28;3137534;28;20584;-63
2022/10/06 01:32:59;;;;;;;4.25;2.75;;;;;;;11.90;54.17;100923.75;3137747;28;20052;-62
2022/10/06 01:34:31;;;;;;;4.40;2.83;;;;;;;11.89;54.13;100924.66;3137335;28;20048;-63
2022/10/06 01:36:03;;;;;;;5.05;2.88;;;;;;;11.86;54.30;100929.97;3136275;28;20110;-63
2022/10/06 01:37:35;;;;;;;3.80;2.35;;;;;;;11.85;54.54;100923.03;3135892;28;20521;-63
2022/10/06 01:39:09;;;;;;;4.95;2.35;;;;;;;11.84;54.39;100929.97;3136873;28;20521;-62
2022/10/06 01:40:39;;;;;;;;;;;;;;;11.80;54.61;100930.13;3137371;28;20856;-63
2022/10/06 01:42:12;;;;;;;8.73;2.80;;;;;;;11.78;54.75;100930.19;3136727;28;20019;-62
2022/10/06 01:43:43;;;;;;;8.68;2.72;;;;;;;11.76;54.64;100929.38;3137005;28;20053;-63
2022/10/06 01:45:16;;;;;;;5.57;3.15;;;;;;;11.74;54.47;100930.31;3136901;28;20056;-63
2022/10/06 01:46:47;;;;;;;4.88;2.63;;;;;;;11.69;55.00;100927.03;3136517;28;20212;-64
2022/10/06 01:48:19;;;;;;;6.28;2.85;;;;;;;11.68;54.92;100930.50;3136980;28;20048;-63
2022/10/06 01:49:51;;;;;;;12.48;2.95;;;;;;;11.66;54.74;100935.78;3136517;28;20163;-64
2022/10/06 01:51:23;;;;;;;6.70;2.80;;;;;;;11.64;55.33;100929.75;3136887;28;20060;-63
2022/10/06 01:52:56;;;;;;;5.25;3.03;;;;;;;11.64;55.03;100934.13;3136410;28;20250;-64
2022/10/06 01:54:29;;;;;;;8.83;2.30;;;;;;;11.61;55.25;100925.47;3135863;28;20309;-63
2022/10/06 01:56:01;;;;;;;5.57;2.92;;;;;;;11.60;55.56;100935.97;3136398;28;20045;-64
2022/10/06 01:57:38;;;;;;;4.57;2.60;;;;;;;11.59;55.50;100927.31;3136378;28;20090;-63
2022/10/06 01:59:10;;;;;;;4.90;2.53;;;;;;;11.57;55.63;100929.09;3137171;28;20059;-64
2022/10/06 02:00:42;;;;;;;6.13;2.90;;;;;;;11.55;55.32;100923.06;3136701;28;20109;-64
2022/10/06 02:02:14;;;;;;;6.72;2.95;;;;;;;11.52;55.53;100931.00;3136150;28;20903;-64
2022/10/06 02:03:46;;;;;;;4.70;2.30;;;;;;;11.50;55.63;100924.97;3135936;28;20060;-63
2022/10/06 02:05:17;;;;;;;5.43;2.50;;;;;;;11.49;55.91;100925.03;3136664;28;20044;-63
2022/10/06 02:06:50;;;;;;;4.28;2.67;;;;;;;11.48;55.82;100926.78;3136893;28;20572;-63
2022/10/06 02:08:22;;;;;;;4.43;2.30;;;;;;;11.46;56.10;100920.75;3137061;28;20102;-63
2022/10/06 02:09:55;;;;;;;6.22;2.58;;;;;;;11.41;56.31;100917.44;3136813;28;20052;-64
2022/10/06 02:11:27;;;;;;;;;;;;;;;11.36;56.05;100919.34;3136163;28;20132;-63
2022/10/06 02:12:58;;;;;;;4.20;2.05;;;;;;;11.32;56.50;100917.72;3136350;28;19927;-63
2022/10/06 02:14:31;;;;;;;5.75;2.35;;;;;;;11.31;56.22;100921.22;3136388;28;20143;-64
2022/10/06 02:16:05;;;;;;;5.68;2.92;;;;;;;11.30;56.40;100916.91;3128299;28;20076;-63
2022/10/06 02:17:39;;;;;;;5.80;2.83;;;;;;;11.30;56.30;100919.53;3134052;28;20044;-63
2022/10/06 02:19:11;;;;;;;5.55;2.45;;;;;;;11.30;56.54;100923.00;3136227;28;20423;-63
2022/10/06 02:20:42;;;;;;;6.82;2.95;;;;;;;11.29;56.65;100921.25;3136664;28;20410;-63
2022/10/06 02:22:14;;;;;;;5.80;2.65;;;;;;;11.27;56.47;100923.09;3136817;28;20663;-63
2022/10/06 02:23:47;;;;;;;5.55;2.80;;;;;;;11.27;56.62;100922.19;3136453;28;20068;-63
2022/10/06 02:25:19;;;;;;;12.65;2.92;;;;;;;11.26;56.76;100923.09;3136546;28;20045;-63
2022/10/06 02:26:52;;;;;;;11.88;2.33;;;;;;;11.22;57.06;100922.34;3136544;28;20080;-63
2022/10/06 02:28:25;;;;;;;5.30;2.85;;;;;;;11.21;56.91;100920.66;3140815;28;20132;-63
2022/10/06 02:29:55;;;;;;;8.55;2.58;;;;;;;11.21;56.98;100922.38;3140911;28;20056;-62
2022/10/06 02:31:27;;;;;;;6.05;2.33;;;;;;;11.21;56.91;100923.25;3140321;28;20095;-62
2022/10/06 02:32:59;;;;;;;4.35;2.63;;;;;;;11.24;56.93;100932.72;3140706;28;20048;-63
2022/10/06 02:34:30;;;;;;;9.80;2.70;;;;;;;11.23;56.89;100931.03;3140650;28;20133;-63
2022/10/06 02:36:02;;;;;;;5.85;2.50;;;;;;;11.24;57.01;100927.50;3140273;28;20586;-62
2022/10/06 02:37:34;;;;;;;5.50;2.10;;;;;;;11.22;56.74;100927.56;3140540;28;20057;-63
2022/10/06 02:39:06;;;;;;;4.40;2.60;;;;;;;11.26;56.64;100931.78;3139186;28;20051;-62
2022/10/06 02:40:40;;;;;;;6.50;2.20;;;;;;;11.27;56.76;100928.28;3137150;28;20052;-62
2022/10/06 02:42:11;;;;;;;7.22;2.38;;;;;;;11.28;56.78;100931.75;3140026;28;20056;-62
2022/10/06 02:43:43;;;;;;;6.80;2.22;;;;;;;11.29;57.13;100933.44;3140225;28;20117;-62
2022/10/06 02:45:15;;;;;;;5.03;2.33;;;;;;;11.28;57.05;100932.59;3140342;28;20055;-62
2022/10/06 02:46:48;;;;;;;9.30;2.78;;;;;;;11.27;57.22;100930.03;3140401;28;20068;-62
2022/10/06 02:48:19;;;;;;;;;;;;;;;11.22;57.35;100927.56;3140779;28;20053;-62
2022/10/06 02:49:51;;;;;;;6.35;2.28;;;;;;;11.18;57.22;100936.41;3140509;28;20449;-62
2022/10/06 02:51:24;;;;;;;9.68;2.40;;;;;;;11.13;57.36;100928.69;3140019;28;20060;-62
2022/10/06 02:52:56;;;;;;;6.05;2.50;;;;;;;11.09;57.83;100927.09;3140066;28;20057;-62
2022/10/06 02:54:28;;;;;;;4.88;2.35;;;;;;;11.06;57.96;100931.50;3140246;28;20466;-62
2022/10/06 02:56:02;;;;;;;5.60;2.28;;;;;;;11.04;57.80;100922.91;3140346;28;20083;-62
2022/10/06 02:57:34;;;;;;;8.30;2.63;;;;;;;11.03;57.62;100927.28;3140029;28;20109;-62
2022/10/06 02:59:06;;;;;;;7.82;2.70;;;;;;;11.01;57.69;100926.44;3137764;28;20060;-62
2022/10/06 03:00:38;;;;;;;7.63;2.38;;;;;;;11.02;57.83;100930.75;3139420;28;20106;-62
2022/10/06 03:02:09;;;;;;;6.20;2.38;;;;;;;11.01;57.82;100926.44;3140349;28;20052;-63
2022/10/06 03:03:41;;;;;;;7.47;2.47;;;;;;;11.02;57.68;100925.53;3140417;28;20662;-62
2022/10/06 03:05:13;;;;;;;5.03;2.40;;;;;;;11.02;57.50;100925.53;3139709;28;20052;-62
2022/10/06 03:06:43;;;;;;;7.15;2.28;;;;;;;11.06;57.39;100931.50;3140033;28;20064;-63
2022/10/06 03:08:15;;;;;;;6.53;2.42;;;;;;;11.06;57.66;100926.28;3139977;28;20124;-63
2022/10/06 03:10:11;;;;;;;6.63;2.17;;;;;;;11.07;57.40;100928.88;3140726;28;20060;-62
2022/10/06 03:11:44;;;;;;;3.67;2.20;;;;;;;11.06;57.60;100924.56;3144873;28;20052;-62
2022/10/06 03:13:16;;;;;;;3.95;2.22;;;;;;;11.03;57.54;100922.06;3145017;28;20118;-62
2022/10/06 03:14:48;;;;;;;3.60;2.08;;;;;;;11.07;57.37;100928.88;3145315;28;20049;-62
2022/10/06 03:16:22;;;;;;;3.65;1.98;;;;;;;11.05;57.75;100920.22;3134497;28;20382;-62
2022/10/06 03:17:54;;;;;;;4.13;2.42;;;;;;;11.04;57.62;100923.75;3145095;28;20052;-62
2022/10/06 03:19:25;;;;;;;4.20;2.30;;;;;;;11.03;57.65;100922.06;3144869;28;20068;-62
2022/10/06 03:21:00;;;;;;;4.95;2.38;;;;;;;11.02;57.55;100912.50;3144953;28;20052;-62
2022/10/06 03:22:32;;;;;;;4.78;2.40;;;;;;;11.01;57.66;100917.78;3144885;28;20044;-62
2022/10/06 03:24:04;;;;;;;9.55;2.75;;;;;;;11.01;57.91;100918.63;3144659;28;20051;-62
2022/10/06 03:25:35;;;;;;;5.18;2.20;;;;;;;11.00;57.85;100922.13;3144955;28;20050;-62
2022/10/06 03:27:09;;;;;;;7.68;2.80;;;;;;;11.01;57.98;100918.63;3145019;28;20056;-62
2022/10/06 03:28:41;;;;;;;5.68;2.20;;;;;;;10.99;57.96;100915.19;3144807;28;20048;-62
2022/10/06 03:30:13;;;;;;;7.40;3.05;;;;;;;10.98;58.24;100918.72;3144881;28;20497;-62
2022/10/06 03:31:44;;;;;;;6.20;2.38;;;;;;;10.98;58.02;100917.88;3145007;28;20052;-62
2022/10/06 03:33:16;;;;;;;7.15;2.80;;;;;;;10.96;57.98;100920.50;3145239;28;20052;-62
2022/10/06 03:34:48;;;;;;;4.32;2.33;;;;;;;10.91;58.24;100911.97;3144818;28;20052;-62
2022/10/06 03:36:22;;;;;;;7.15;2.58;;;;;;;10.89;58.32;100916.38;3144502;28;20055;-62
2022/10/06 03:37:54;;;;;;;4.70;2.50;;;;;;;10.90;58.23;100913.72;3145039;28;20258;-62
2022/10/06 03:39:26;;;;;;;5.03;2.30;;;;;;;10.90;57.97;100910.25;3145101;28;20064;-62
2022/10/06 03:41:05;;;;;;;6.82;2.15;;;;;;;10.93;57.82;100911.03;3144791;28;20437;-62
2022/10/06 03:42:38;;;;;;;5.53;2.10;;;;;;;10.92;58.05;100906.72;3144882;28;20055;-62
2022/10/06 03:44:10;;;;;;;4.45;2.67;;;;;;;10.93;58.26;100910.16;3144452;28;20048;-62
2022/10/06 03:45:40;;;;;;;7.90;3.15;;;;;;;10.93;57.98;100904.97;3144931;28;20582;-62
2022/10/06 03:47:12;;;;;;;5.75;2.60;;;;;;;10.96;57.83;100915.28;3144689;28;20109;-62
2022/10/06 03:48:43;;;;;;;8.95;2.60;;;;;;;10.98;58.07;100912.66;3144634;28;20694;-61
2022/10/06 03:50:16;;;;;;;4.40;2.28;;;;;;;10.99;57.79;100912.59;3145113;28;20091;-63
2022/10/06 03:51:48;;;;;;;4.70;2.63;;;;;;;10.97;58.12;100917.00;3144991;28;20665;-63
2022/10/06 03:53:24;;;;;;;8.75;2.53;;;;;;;10.92;58.42;100916.28;3144426;28;20055;-63
2022/10/06 03:54:56;;;;;;;4.07;2.80;;;;;;;10.87;58.15;100915.56;3144795;28;20063;-63
2022/10/06 03:56:30;;;;;;;6.07;2.63;;;;;;;10.86;58.18;100913.88;3144359;28;20045;-63
2022/10/06 03:58:03;;;;;;;4.85;2.80;;;;;;;10.83;58.28;100913.94;3144640;28;20147;-63
2022/10/06 03:59:35;;;;;;;8.23;2.90;;;;;;;10.78;58.18;100903.66;3144863;28;20048;-63
2022/10/06 04:01:08;;;;;;;8.55;2.72;;;;;;;10.77;58.34;100909.75;3144103;28;20571;-63
2022/10/06 04:02:40;;;;;;;9.15;3.20;;;;;;;10.81;58.47;100920.94;3144864;28;20048;-63
2022/10/06 04:04:12;;;;;;;16.50;3.15;;;;;;;10.80;58.36;100916.66;3144539;28;20049;-63
2022/10/06 04:05:51;;;;;;;8.52;3.20;;;;;;;10.81;58.17;100915.75;3144738;28;20098;-62
2022/10/06 04:07:23;;;;;;;5.60;3.33;;;;;;;10.79;58.47;100907.94;3144559;28;20048;-62
2022/10/06 04:08:56;;;;;;;4.40;2.70;;;;;;;10.76;58.38;100912.41;3143620;28;20056;-63
2022/10/06 04:10:27;;;;;;;9.98;2.97;;;;;;;10.73;58.93;100910.72;3144570;28;20052;-62
2022/10/06 04:11:59;;;;;;;9.70;3.03;;;;;;;10.72;58.45;100914.25;3144686;28;20055;-62
2022/10/06 04:13:32;;;;;;;5.85;2.47;;;;;;;10.69;58.84;100902.16;3144405;28;20131;-62
2022/10/06 04:15:04;;;;;;;5.78;2.72;;;;;;;10.69;58.50;100911.72;3144417;28;20052;-63
2022/10/06 04:16:36;;;;;;;5.85;3.22;;;;;;;10.69;58.75;100911.72;3141422;28;20189;-63
2022/10/06 04:18:08;;;;;;;7.20;2.97;;;;;;;10.66;58.67;100907.44;3144472;28;20048;-62
2022/10/06 04:19:40;;;;;;;5.82;3.05;;;;;;;10.65;58.84;100910.97;3144344;28;20052;-62
2022/10/06 04:21:12;;;;;;;6.57;3.03;;;;;;;10.65;58.66;100912.72;3144349;28;20482;-63
2022/10/06 04:22:44;;;;;;;9.10;3.30;;;;;;;10.66;58.41;100911.81;3144422;28;20281;-62
2022/10/06 04:24:17;;;;;;;6.75;3.03;;;;;;;10.64;58.40;100913.59;3144304;28;20060;-62
2022/10/06 04:25:48;;;;;;;7.47;2.55;;;;;;;10.63;58.52;100910.13;3144315;28;20045;-63
2022/10/06 04:27:29;;;;;;;7.90;2.70;;;;;;;10.59;59.06;100910.25;3144566;28;20441;-62
2022/10/06 04:29:03;;;;;;;8.57;2.75;;;;;;;10.57;58.46;100915.53;3144238;28;20044;-63
2022/10/06 04:30:35;;;;;;;4.88;2.40;;;;;;;10.57;58.52;100912.06;3144289;28;20052;-62
2022/10/06 04:32:06;;;;;;;8.45;2.17;;;;;;;10.56;58.51;100911.22;3144268;28;20041;-62
2022/10/06 04:33:39;;;;;;;13.82;2.97;;;;;;;10.56;58.72;100907.72;3144488;28;20053;-62
2022/10/06 04:35:10;;;;;;;7.65;2.30;;;;;;;10.55;58.53;100909.50;3143994;28;20114;-63
2022/10/06 04:36:42;;;;;;;4.68;2.58;;;;;;;10.56;58.61;100913.81;3144508;28;20102;-62
2022/10/06 04:38:14;;;;;;;8.60;2.80;;;;;;;10.55;58.73;100908.63;3144211;28;20109;-63
2022/10/06 04:39:46;;;;;;;11.48;3.58;;;;;;;10.56;58.52;100910.34;3144545;28;20426;-63
2022/10/06 04:41:20;;;;;;;6.25;3.08;;;;;;;10.55;58.71;100906.03;3143884;28;20057;-63
2022/10/06 04:42:51;;;;;;;8.20;2.78;;;;;;;10.53;59.04;100906.09;3144179;28;20427;-63
2022/10/06 04:44:24;;;;;;;10.82;2.85;;;;;;;10.53;59.00;100903.50;3144282;28;20101;-60
2022/10/06 04:45:59;;;;;;;6.53;2.72;;;;;;;10.50;59.14;100905.28;3144367;28;20057;-61
2022/10/06 04:47:31;;;;;;;7.43;2.80;;;;;;;10.48;59.01;100905.34;3144336;28;20052;-61
2022/10/06 04:49:02;;;;;;;6.97;2.70;;;;;;;10.43;59.09;100908.06;3144244;28;20068;-61
2022/10/06 04:50:34;;;;;;;18.38;2.75;;;;;;;10.44;59.12;100904.59;3144086;28;20051;-63
2022/10/06 04:52:06;;;;;;;7.22;2.60;;;;;;;10.47;59.36;100912.31;3144028;28;20177;-62
2022/10/06 04:53:38;;;;;;;11.38;3.58;;;;;;;10.47;59.31;100912.31;3139036;28;20102;-62
2022/10/06 04:55:11;;;;;;;12.25;3.10;;;;;;;10.48;58.98;100905.34;3144301;28;20056;-62
2022/10/06 04:56:42;;;;;;;11.80;3.10;;;;;;;10.44;59.27;100904.59;3144420;28;20533;-62
2022/10/06 04:58:13;;;;;;;12.07;3.17;;;;;;;10.44;59.25;100907.19;3144095;28;20048;-62
2022/10/06 05:01:37;;;;;;;11.32;3.00;;;;;;;10.45;59.39;100910.66;3143416;28;20135;-63
2022/10/06 05:03:08;;;;;;;7.20;2.95;;;;;;;10.44;59.25;100906.31;3143995;28;20044;-63
2022/10/06 05:04:39;;;;;;;11.43;2.70;;;;;;;10.43;59.35;100900.25;3144141;28;20055;-63
2022/10/06 05:06:13;;;;;;;6.03;2.78;;;;;;;10.45;59.49;100914.09;3143504;28;20051;-64
2022/10/06 05:07:45;;;;;;;8.60;2.83;;;;;;;10.47;59.38;100906.25;3143891;28;20121;-64
2022/10/06 05:09:17;;;;;;;7.28;3.20;;;;;;;10.50;59.21;100907.91;3143944;28;20449;-62
2022/10/06 05:10:49;;;;;;;12.25;2.47;;;;;;;10.50;59.16;100911.38;3142779;28;20051;-63
2022/10/06 05:12:21;;;;;;;7.63;2.80;;;;;;;10.52;59.39;100908.72;3133751;28;20045;-63
2022/10/06 05:13:55;;;;;;;5.53;2.47;;;;;;;10.53;59.36;100913.91;3134173;28;20049;-63
2022/10/06 05:15:28;;;;;;;10.65;2.60;;;;;;;10.53;59.19;100910.41;3134894;28;20045;-63
2022/10/06 05:17:00;;;;;;;7.28;2.40;;;;;;;10.56;59.14;100915.53;3134820;28;20431;-63
2022/10/06 05:18:33;;;;;;;5.90;2.70;;;;;;;10.59;59.27;100915.47;3133520;28;20663;-63
2022/10/06 05:20:07;;;;;;;7.07;2.75;;;;;;;10.62;59.25;100916.25;3135659;28;20105;-62
2022/10/06 05:21:39;;;;;;;7.18;3.38;;;;;;;10.64;59.15;100916.19;3137148;28;20055;-62
2022/10/06 05:23:09;;;;;;;10.48;2.13;;;;;;;10.67;58.87;100914.34;3136261;28;20101;-66
2022/10/06 05:24:41;;;;;;;5.78;2.38;;;;;;;10.70;58.74;100916.03;3137607;28;20052;-62
2022/10/06 05:26:15;;;;;;;7.50;2.40;;;;;;;10.72;58.72;100916.84;3136283;28;20052;-63
2022/10/06 05:27:46;;;;;;;5.28;2.13;;;;;;;10.72;58.84;100916.00;3137704;28;20084;-63
2022/10/06 05:29:18;;;;;;;8.38;2.20;;;;;;;10.73;58.66;100921.16;3136177;28;20048;-63
2022/10/06 05:30:59;;;;;;;9.45;2.45;;;;;;;10.75;58.71;100923.72;3136948;28;20166;-62
2022/10/06 05:32:31;;;;;;;7.10;2.20;;;;;;;10.78;58.44;100918.44;3136518;28;20646;-63
2022/10/06 05:34:03;;;;;;;8.25;2.50;;;;;;;10.80;58.71;100927.06;3136584;28;20494;-63
2022/10/06 05:35:35;;;;;;;6.40;2.40;;;;;;;10.82;58.83;100935.69;3136735;28;20049;-62
2022/10/06 05:37:07;;;;;;;6.80;2.65;;;;;;;10.83;58.54;100929.59;3136773;28;20052;-64
2022/10/06 05:38:40;;;;;;;8.40;2.58;;;;;;;10.80;58.63;100937.50;3136240;28;20544;-64
2022/10/06 05:40:12;;;;;;;7.13;2.53;;;;;;;10.81;58.94;100941.78;3136676;28;20058;-62
2022/10/06 05:41:44;;;;;;;7.20;2.20;;;;;;;10.84;58.35;100939.94;3136652;28;20056;-63
2022/10/06 05:43:16;;;;;;;7.32;2.40;;;;;;;10.86;58.53;100943.38;3135505;28;20147;-64
2022/10/06 05:44:48;;;;;;;5.60;2.15;;;;;;;10.87;58.27;100947.69;3136698;28;20341;-65
2022/10/06 05:46:23;;;;;;;11.80;3.08;;;;;;;10.92;58.13;100942.34;3136303;28;20052;-67
2022/10/06 05:47:55;;;;;;;7.13;2.30;;;;;;;10.93;58.31;100942.28;3136836;28;20153;-62
2022/10/06 05:49:31;;;;;;;7.85;2.90;;;;;;;10.95;58.46;100947.47;3137673;28;20251;-64
2022/10/06 05:51:06;;;;;;;8.30;2.38;;;;;;;10.93;58.21;100941.44;3140092;28;20059;-62
2022/10/06 05:52:37;;;;;;;6.07;1.80;;;;;;;10.91;58.56;100938.91;3139359;28;20158;-63
2022/10/06 05:54:09;;;;;;;5.38;2.22;;;;;;;10.91;58.30;100946.72;3135472;28;20574;-63
2022/10/06 05:55:42;;;;;;;8.85;2.35;;;;;;;10.92;58.36;100945.81;3136238;28;20056;-62
2022/10/06 05:57:14;;;;;;;5.53;2.95;;;;;;;10.97;58.04;100947.41;3136408;28;20060;-64
2022/10/06 05:58:48;;;;;;;6.85;3.17;;;;;;;11.01;58.15;100936.03;3135465;28;20419;-63
2022/10/06 06:00:19;;;;;;;4.70;2.28;;;;;;;11.05;58.47;100945.47;3135693;28;20431;-60
2022/10/06 06:01:53;;;;;;;8.30;2.58;;;;;;;11.09;58.42;100940.13;3136047;28;20091;-64
2022/10/06 06:03:24;;;;;;;;;;;;;;;11.13;58.11;100944.34;3136270;28;20070;-62
2022/10/06 06:04:56;;;;;;;9.85;2.90;;;;;;;11.18;58.45;100946.81;3136346;28;19996;-63
2022/10/06 06:06:29;;;;;;;14.80;3.58;;;;;;;11.15;58.29;100942.56;3136464;28;20041;-61
2022/10/06 06:08:01;;;;;;;10.33;2.97;;;;;;;11.27;58.16;100948.28;3136003;28;20465;-61
2022/10/06 06:09:33;;;;;;;9.07;3.03;;;;;;;11.35;57.90;100943.69;3135803;28;20314;-62
2022/10/06 06:11:06;;;;;;;8.05;3.05;;;;;;;11.44;57.92;100953.00;3136447;28;20830;-62
2022/10/06 06:12:38;;;;;;;13.23;3.42;;;;;;;11.54;57.71;100955.28;3138015;28;20055;-62
2022/10/06 06:14:12;;;;;;;10.10;3.35;;;;;;;11.66;57.47;100961.03;3132138;28;20052;-62
2022/10/06 06:16:03;;;;;;;8.60;3.95;;;;;;;11.74;57.89;100956.41;3136358;28;20507;-64
2022/10/06 06:17:36;;;;;;;10.75;3.53;;;;;;;11.90;57.56;100960.28;3135650;28;20075;-62
2022/10/06 06:19:09;;;;;;;;;;;;;;;12.03;57.80;100960.72;3136372;28;20049;-63
2022/10/06 06:20:40;;;;;;;5.05;3.42;;;;;;;12.11;57.44;100950.91;3136849;28;20388;-65
2022/10/06 06:22:12;;;;;;;8.35;3.10;;;;;;;12.39;57.07;100960.41;3135518;28;20063;-63
2022/10/06 06:23:45;;;;;;;8.27;3.47;;;;;;;12.60;56.54;100962.31;3135810;28;20117;-63
2022/10/06 06:25:18;;;;;;;9.85;3.90;;;;;;;12.80;56.16;100969.41;3135772;28;20088;-62
2022/10/06 06:26:50;;;;;;;12.77;4.03;;;;;;;13.06;56.29;100958.00;3135470;28;20649;-62
2022/10/06 06:28:20;;;;;;;14.27;3.70;;;;;;;13.34;55.44;100962.22;3135603;28;20204;-63
2022/10/06 06:29:52;;;;;;;6.18;3.65;;;;;;;13.62;55.28;100962.03;3136924;28;20547;-64
2022/10/06 06:31:27;;;;;;;7.40;3.38;;;;;;;13.88;54.36;100963.63;3135843;28;20485;-63
2022/10/06 06:33:00;;;;;;;12.10;3.65;;;;;;;14.09;53.45;100967.97;3136923;28;20066;-64
2022/10/06 06:34:32;;;;;;;11.88;3.35;;;;;;;14.28;53.11;100968.06;3135687;28;20055;-66
2022/10/06 06:36:11;;;;;;;8.50;3.00;;;;;;;14.50;52.26;100964.56;3128518;28;20142;-64
2022/10/06 06:37:43;;;;;;;10.90;3.28;;;;;;;14.78;51.48;100966.84;3136442;28;20179;-63
2022/10/06 06:39:18;;;;;;;7.68;3.00;;;;;;;15.05;50.88;100969.16;3136536;28;20070;-63
2022/10/06 06:40:50;;;;;;;10.43;3.05;;;;;;;15.32;50.38;100967.03;3137403;28;20056;-64
2022/10/06 06:42:22;;;;;;;9.93;3.43;;;;;;;15.41;49.25;100967.50;3133957;28;20071;-62
2022/10/06 06:43:55;;;;;;;6.35;2.78;;;;;;;15.66;48.76;100963.69;3129127;28;20352;-64
2022/10/06 06:45:27;;;;;;;8.65;2.75;;;;;;;15.92;48.40;100965.94;3130498;28;20817;-64
2022/10/06 06:47:00;;;;;;;9.80;2.90;;;;;;;16.19;47.55;100964.66;3131530;28;20113;-63
2022/10/06 06:48:34;;;;;;;10.05;3.20;;;;;;;16.37;46.61;100961.94;3128211;28;20604;-65
2022/10/06 06:50:09;;;;;;;12.88;2.78;;;;;;;16.61;46.18;100959.00;3131434;28;20052;-64
2022/10/06 06:51:42;;;;;;;8.00;2.58;;;;;;;16.89;45.56;100954.94;3128734;28;20611;-65
2022/10/06 06:53:14;;;;;;;;;;;;;;;17.09;45.18;100949.47;3125273;28;20052;-68
2022/10/06 06:54:48;;;;;;;6.30;2.40;;;;;;;17.30;44.37;100950.06;3129764;28;20185;-65
2022/10/06 06:56:21;;;;;;;3.55;2.40;;;;;;;17.61;43.51;100948.38;3129316;28;20055;-67
2022/10/06 06:57:53;;;;;;;6.07;2.55;;;;;;;18.00;43.21;100950.56;3128023;28;20061;-67
2022/10/06 06:59:25;;;;;;;5.18;2.38;;;;;;;18.44;42.54;100946.25;3125316;28;20251;-67
2022/10/06 07:01:03;;;;;;;9.25;2.30;;;;;;;18.94;41.91;100943.22;3133526;28;20122;-67
2022/10/06 07:02:35;;;;;;;4.88;2.28;;;;;;;19.35;41.13;100941.56;3132173;28;20521;-69
2022/10/06 07:04:09;;;;;;;8.60;2.50;;;;;;;19.77;39.99;100946.75;3130370;28;20144;-64
2022/10/06 07:05:40;;;;;;;;;;;;;;;20.16;39.07;100946.84;3138401;28;20080;-64
2022/10/06 07:07:12;;;;;;;7.97;2.33;;;;;;;20.44;38.46;100948.50;3137947;28;20265;-63
2022/10/06 07:08:46;;;;;;;5.13;2.53;;;;;;;20.61;37.49;100940.25;3135365;28;20136;-63
2022/10/06 07:10:18;;;;;;;8.55;2.75;;;;;;;20.68;36.81;100940.69;3137685;28;20541;-64
2022/10/06 07:11:50;;;;;;;12.38;3.28;;;;;;;20.78;36.74;100943.53;3140015;28;20795;-65
2022/10/06 07:13:21;;;;;;;9.90;2.80;;;;;;;20.90;36.64;100934.72;3140309;28;20049;-63
2022/10/06 07:26:08;;;;;;;9.55;2.28;;;;;;;22.53;34.00;100920.13;3136782;28;20514;-65